Time;durP1;ratioP1;P1;durP2;ratioP2;P2;SDS_P1;SDS_P2;PMS_P1;PMS_P2;Temp;Humidity;BMP_temperature;BMP_pressure;BME280_temperature;BME280_humidity;BME280_pressure;Samples;Min_cycle;Max_cycle;Signal;HPM_P1;HPM_P2
2023/01/15 00:00:35;;;;;;;15.43;11.13;;;;;;;9.62;65.59;95041.16;5111379;28;20193;-50
2023/01/15 00:03:02;;;;;;;18.07;11.43;;;;;;;9.63;65.59;95045.38;5111493;28;20196;-48
2023/01/15 00:05:29;;;;;;;13.60;10.53;;;;;;;9.63;65.51;95041.97;5111084;28;20193;-51
2023/01/15 00:07:56;;;;;;;15.87;11.17;;;;;;;9.61;65.50;95034.44;5111237;28;20197;-49
2023/01/15 00:10:22;;;;;;;14.40;10.47;;;;;;;9.62;65.57;95038.63;5111346;28;20270;-48
2023/01/15 00:12:51;;;;;;;14.37;11.00;;;;;;;9.62;65.58;95041.16;5111465;28;20192;-47
2023/01/15 00:15:17;;;;;;;14.63;10.57;;;;;;;9.63;65.76;95036.88;5112173;28;20201;-49
2023/01/15 00:17:45;;;;;;;17.50;11.03;;;;;;;9.63;65.62;95034.31;5110941;28;20193;-49
2023/01/15 00:20:13;;;;;;;19.77;11.83;;;;;;;9.62;65.61;95036.06;5111141;28;20224;-48
2023/01/15 00:22:39;;;;;;;19.90;10.77;;;;;;;9.61;65.56;95037.00;5111271;28;20188;-48
2023/01/15 00:27:51;;;;;;;17.60;11.33;;;;;;;9.60;65.86;95034.59;5111708;28;20597;-49
2023/01/15 00:30:18;;;;;;;16.07;10.60;;;;;;;9.59;65.68;95032.97;5111774;28;20189;-47
2023/01/15 00:32:46;;;;;;;16.37;10.80;;;;;;;9.51;65.73;95024.16;5112268;28;20192;-47
2023/01/15 00:35:15;;;;;;;17.13;10.57;;;;;;;9.53;65.64;95029.16;5113216;28;20654;-48
2023/01/15 00:37:42;;;;;;;17.27;11.53;;;;;;;9.55;65.93;95030.66;5112373;28;20181;-48
2023/01/15 00:40:10;;;;;;;14.30;11.10;;;;;;;9.57;65.71;95032.28;5113018;28;20228;-50
2023/01/15 00:42:37;;;;;;;17.00;10.67;;;;;;;9.57;65.73;95039.94;5112840;28;20352;-47
2023/01/15 00:45:08;;;;;;;16.17;11.13;;;;;;;9.57;65.61;95042.47;5112447;28;20189;-47
2023/01/15 00:47:35;;;;;;;14.87;10.47;;;;;;;9.56;65.93;95036.56;5113808;28;20682;-48
2023/01/15 00:50:04;;;;;;;16.73;11.10;;;;;;;9.57;65.64;95027.97;5113758;28;20614;-48
2023/01/15 00:52:31;;;;;;;14.90;10.23;;;;;;;9.56;65.66;95028.91;5113580;28;20283;-47
2023/01/15 00:54:58;;;;;;;16.40;10.67;;;;;;;9.55;65.76;95029.84;5113119;28;20181;-47
2023/01/15 00:57:25;;;;;;;14.07;10.77;;;;;;;9.56;65.68;95031.47;5117562;28;20200;-49
2023/01/15 00:59:52;;;;;;;16.60;11.33;;;;;;;9.51;65.81;95028.47;5113155;28;20224;-48
2023/01/15 01:02:19;;;;;;;18.00;11.63;;;;;;;9.55;65.74;95032.41;5111606;28;20241;-48
2023/01/15 01:04:46;;;;;;;16.10;10.67;;;;;;;9.51;65.78;95028.47;5111613;28;20223;-48
2023/01/15 01:07:14;;;;;;;16.60;12.40;;;;;;;9.47;65.68;95025.34;5111991;28;20181;-47
2023/01/15 01:09:41;;;;;;;16.30;10.50;;;;;;;9.52;65.86;95030.88;5110851;28;20202;-48
2023/01/15 01:12:08;;;;;;;14.13;10.40;;;;;;;9.54;65.71;95030.75;5111022;28;20212;-49
2023/01/15 01:14:36;;;;;;;15.80;11.00;;;;;;;9.52;65.71;95022.44;5110087;28;20185;-49
2023/01/15 01:17:02;;;;;;;13.23;10.57;;;;;;;9.47;65.68;95017.69;5110964;28;20708;-47
2023/01/15 01:19:29;;;;;;;14.60;10.00;;;;;;;9.54;65.77;95021.38;5110660;28;20611;-53
2023/01/15 01:21:56;;;;;;;13.43;9.97;;;;;;;9.55;65.83;95022.19;5111384;28;20192;-47
2023/01/15 01:24:24;;;;;;;17.53;11.13;;;;;;;9.54;65.66;95021.38;5111187;28;20643;-49
2023/01/15 01:26:51;;;;;;;12.57;9.43;;;;;;;9.54;65.59;95020.53;5113384;28;20181;-48
2023/01/15 01:29:20;;;;;;;14.77;10.50;;;;;;;9.54;65.79;95021.38;5111667;28;20561;-49
2023/01/15 01:31:49;;;;;;;14.67;11.00;;;;;;;9.48;65.77;95005.72;5112277;28;20197;-49
2023/01/15 01:34:16;;;;;;;15.73;11.00;;;;;;;9.52;65.46;95010.47;5112742;28;20197;-49
2023/01/15 01:36:44;;;;;;;14.70;10.20;;;;;;;9.54;65.63;95018.84;5112543;28;20298;-48
2023/01/15 01:39:14;;;;;;;12.43;10.50;;;;;;;9.55;65.58;95017.09;5112935;28;20293;-48
2023/01/15 01:41:43;;;;;;;14.30;10.30;;;;;;;9.52;65.68;95012.22;5112775;28;20208;-47
2023/01/15 01:44:43;;;;;;;16.50;11.03;;;;;;;9.53;65.91;95017.19;5114944;28;20200;-51
2023/01/15 01:47:14;;;;;;;14.03;10.50;;;;;;;9.52;65.68;95015.56;5111915;28;20193;-49
2023/01/15 01:49:44;;;;;;;14.73;9.83;;;;;;;9.52;65.77;95015.56;5112427;28;20184;-50
2023/01/15 01:52:15;;;;;;;14.30;10.60;;;;;;;9.46;65.91;95008.41;5110146;28;20185;-49
2023/01/15 01:54:45;;;;;;;12.80;9.83;;;;;;;9.51;65.96;95036.13;5109687;28;20196;-49
2023/01/15 01:57:15;;;;;;;16.10;11.37;;;;;;;9.51;65.83;95020.81;5111796;28;20178;-47
2023/01/15 01:59:41;;;;;;;15.67;10.83;;;;;;;9.51;65.80;95024.16;5110509;28;20221;-49
2023/01/15 02:02:08;;;;;;;12.27;10.00;;;;;;;9.51;65.93;95011.41;5110571;28;20235;-47
2023/01/15 02:04:37;;;;;;;13.10;9.93;;;;;;;9.50;65.67;95011.53;5109544;28;20257;-48
2023/01/15 02:07:04;;;;;;;14.57;9.97;;;;;;;9.50;65.95;95012.34;5110082;28;20207;-49
2023/01/15 02:09:31;;;;;;;13.83;10.50;;;;;;;9.50;65.76;95014.91;5109593;28;20192;-48
2023/01/15 02:12:05;;;;;;;12.50;9.93;;;;;;;9.49;65.85;95013.25;5109830;28;20185;-47
2023/01/15 02:14:39;;;;;;;15.17;10.60;;;;;;;9.49;65.93;95013.25;5109442;28;20233;-47
2023/01/15 02:17:12;;;;;;;15.57;10.70;;;;;;;9.45;65.93;94999.13;5109394;28;20197;-47
2023/01/15 02:19:50;;;;;;;13.50;10.60;;;;;;;9.48;65.86;95009.09;5109227;28;20228;-49
2023/01/15 02:22:29;;;;;;;13.67;10.77;;;;;;;9.49;65.85;95007.34;5109768;28;20297;-48
2023/01/15 02:25:04;;;;;;;13.37;10.40;;;;;;;9.50;65.87;95003.88;5109520;28;20192;-48
2023/01/15 02:27:34;;;;;;;16.17;10.67;;;;;;;9.48;65.93;95003.19;5109501;28;20192;-48
2023/01/15 02:30:06;;;;;;;16.23;10.80;;;;;;;9.50;65.90;95009.00;5112708;28;20193;-49
2023/01/15 02:32:40;;;;;;;15.60;10.80;;;;;;;9.51;65.91;95010.59;5113226;28;20209;-49
2023/01/15 02:35:12;;;;;;;11.87;9.67;;;;;;;9.39;65.87;94980.94;5112958;28;20184;-49
2023/01/15 02:37:45;;;;;;;15.77;10.57;;;;;;;9.49;66.01;94997.13;5112949;28;20177;-49
2023/01/15 02:40:13;;;;;;;15.23;10.67;;;;;;;9.49;65.99;94992.84;5112636;28;20273;-48
2023/01/15 02:42:43;;;;;;;15.73;11.33;;;;;;;9.50;66.00;94986.00;5112894;28;20192;-48
2023/01/15 02:45:14;;;;;;;15.87;11.33;;;;;;;9.50;65.99;94989.38;5113007;28;20200;-49
2023/01/15 02:47:43;;;;;;;14.70;10.37;;;;;;;9.32;65.85;94955.09;5112879;28;20226;-49
2023/01/15 02:50:14;;;;;;;14.33;10.90;;;;;;;9.49;66.05;94985.19;5113021;28;20185;-48
2023/01/15 02:52:45;;;;;;;14.37;10.57;;;;;;;9.46;66.06;94980.34;5112702;28;20204;-46
2023/01/15 02:55:16;;;;;;;16.67;11.07;;;;;;;9.49;65.85;94987.72;5112497;28;20284;-48
2023/01/15 02:57:46;;;;;;;15.47;11.17;;;;;;;9.42;66.10;94978.16;5112878;27;20196;-48
2023/01/15 03:00:17;;;;;;;16.80;10.77;;;;;;;9.49;66.13;94986.94;5112388;28;20678;-49
2023/01/15 03:02:50;;;;;;;15.83;11.67;;;;;;;9.49;66.06;94984.38;5112467;28;20225;-49
2023/01/15 03:05:22;;;;;;;14.90;10.70;;;;;;;9.49;65.90;94984.38;5112413;28;20197;-48
2023/01/15 03:07:52;;;;;;;20.53;12.03;;;;;;;9.25;66.06;94948.88;5112806;28;20340;-47
2023/01/15 03:10:22;;;;;;;19.00;12.23;;;;;;;9.47;65.98;94981.94;5112195;28;20189;-48
2023/01/15 03:13:06;;;;;;;16.10;10.97;;;;;;;9.46;66.31;94997.41;5112657;28;20204;-50
2023/01/15 03:18:31;;;;;;;17.93;12.53;;;;;;;9.42;66.21;94988.38;5112040;28;20188;-48
2023/01/15 03:21:03;;;;;;;18.10;11.97;;;;;;;9.39;66.17;94989.41;5112324;28;20288;-48
2023/01/15 03:23:30;;;;;;;15.67;11.13;;;;;;;9.18;66.26;94952.84;5112002;28;20223;-49
2023/01/15 03:25:57;;;;;;;17.13;12.53;;;;;;;9.42;66.14;94983.25;5112336;28;20332;-49
2023/01/15 03:28:29;;;;;;;17.83;12.23;;;;;;;9.41;66.14;94985.00;5111795;28;20618;-50
2023/01/15 03:30:56;;;;;;;17.40;12.33;;;;;;;9.42;66.17;94991.72;5112176;28;20197;-48
2023/01/15 03:33:25;;;;;;;18.90;12.03;;;;;;;9.42;66.13;95001.94;5111684;28;20208;-47
2023/01/15 03:35:56;;;;;;;18.83;11.17;;;;;;;9.43;66.03;95000.19;5111882;28;20220;-49
2023/01/15 03:38:26;;;;;;;17.07;11.60;;;;;;;9.44;66.17;94999.25;5111818;28;20726;-48
2023/01/15 03:41:00;;;;;;;15.83;11.47;;;;;;;9.31;66.13;94968.78;5111360;28;20220;-47
2023/01/15 03:43:40;;;;;;;15.50;11.37;;;;;;;9.45;66.02;94994.00;5111606;28;20184;-47
2023/01/15 03:46:15;;;;;;;18.07;11.97;;;;;;;9.44;65.99;94992.41;5111742;28;20195;-48
2023/01/15 03:48:48;;;;;;;14.97;10.87;;;;;;;9.45;66.14;94999.13;5111577;28;20279;-50
2023/01/15 03:51:22;;;;;;;14.40;10.63;;;;;;;9.45;65.89;94995.75;5111805;28;20200;-48
2023/01/15 03:53:53;;;;;;;16.07;11.57;;;;;;;9.46;65.79;94999.94;5111799;28;20189;-48
2023/01/15 03:56:30;;;;;;;16.87;10.70;;;;;;;9.45;65.90;94988.09;5111587;28;20211;-47
2023/01/15 03:59:02;;;;;;;17.10;10.83;;;;;;;9.44;65.83;94981.38;5111791;28;20201;-49
2023/01/15 04:01:35;;;;;;;15.50;10.63;;;;;;;9.45;66.00;94993.22;5110875;28;20232;-49
2023/01/15 04:04:03;;;;;;;16.40;10.80;;;;;;;9.42;65.76;94994.28;5111326;28;20605;-49
2023/01/15 04:06:32;;;;;;;14.47;10.63;;;;;;;9.45;65.97;94999.13;5111222;28;20195;-49
2023/01/15 04:08:59;;;;;;;13.43;10.00;;;;;;;9.46;65.68;94990.53;5111097;28;20185;-48
2023/01/15 04:11:27;;;;;;;17.57;10.67;;;;;;;9.32;65.79;94965.31;5111469;28;20189;-48
2023/01/15 04:13:54;;;;;;;13.50;9.87;;;;;;;9.47;65.63;94987.06;5111223;28;20216;-49
2023/01/15 04:16:29;;;;;;;15.67;10.07;;;;;;;9.47;65.68;94991.34;5111259;28;20268;-49
2023/01/15 04:18:56;;;;;;;16.00;10.37;;;;;;;9.48;65.60;94987.88;5109730;28;20237;-48
2023/01/15 04:21:23;;;;;;;14.13;10.07;;;;;;;9.48;65.47;94985.31;5115946;28;20220;-52
2023/01/15 04:23:50;;;;;;;14.97;9.37;;;;;;;9.36;65.62;94976.09;5118593;27;20185;-50
2023/01/15 04:26:17;;;;;;;15.73;10.63;;;;;;;9.46;65.55;94988.00;5120785;28;20203;-48
2023/01/15 04:28:45;;;;;;;14.63;10.07;;;;;;;9.49;65.58;94992.03;5112995;28;20189;-51
2023/01/15 04:31:12;;;;;;;15.17;10.43;;;;;;;9.48;65.57;94987.88;5111746;28;20200;-49
2023/01/15 04:33:40;;;;;;;11.83;9.10;;;;;;;9.48;65.60;94995.53;5110826;28;20189;-49
2023/01/15 04:36:08;;;;;;;16.27;11.23;;;;;;;9.43;65.28;94982.31;5111251;28;20593;-47
2023/01/15 04:38:37;;;;;;;16.07;10.37;;;;;;;9.47;65.50;95004.13;5111272;28;20213;-48
2023/01/15 04:44:08;;;;;;;14.53;9.93;;;;;;;9.35;65.39;94984.69;5110445;28;20673;-49
2023/01/15 04:46:37;;;;;;;15.23;10.70;;;;;;;9.42;65.53;94999.38;5110860;28;20197;-49
2023/01/15 04:49:06;;;;;;;12.97;10.27;;;;;;;9.40;65.56;94998.69;5110140;28;20201;-50
2023/01/15 04:51:33;;;;;;;11.17;8.90;;;;;;;9.09;65.81;94953.59;5110137;28;20201;-49
2023/01/15 04:54:02;;;;;;;14.40;10.60;;;;;;;9.36;65.61;95004.97;5109806;28;20245;-47
2023/01/15 04:56:29;;;;;;;13.83;9.60;;;;;;;9.31;65.64;95009.63;5110887;28;20253;-49
2023/01/15 04:58:55;;;;;;;11.83;9.20;;;;;;;9.26;65.58;95002.34;5110202;28;20186;-49
2023/01/15 05:01:22;;;;;;;13.70;9.23;;;;;;;9.25;65.79;95010.94;5110393;28;20240;-51
2023/01/15 05:03:49;;;;;;;14.83;10.33;;;;;;;9.22;65.62;95008.63;5109874;28;20208;-49
2023/01/15 05:06:17;;;;;;;15.07;9.70;;;;;;;9.20;65.77;95009.69;5110765;28;20572;-50
2023/01/15 05:08:44;;;;;;;13.33;10.17;;;;;;;9.18;65.81;95007.25;5109965;28;20270;-48
2023/01/15 05:11:11;;;;;;;14.90;10.43;;;;;;;9.15;65.80;95006.66;5109959;28;20193;-48
2023/01/15 05:13:38;;;;;;;14.80;11.17;;;;;;;9.13;65.84;95006.00;5109919;28;20188;-49
2023/01/15 05:16:14;;;;;;;15.20;9.90;;;;;;;9.10;66.05;95009.59;5110246;28;20655;-49
2023/01/15 05:18:41;;;;;;;15.97;10.33;;;;;;;9.07;65.97;95014.94;5109899;28;20189;-48
2023/01/15 05:21:14;;;;;;;14.30;9.97;;;;;;;9.02;65.99;95004.28;5110227;28;20223;-48
2023/01/15 05:23:42;;;;;;;14.40;10.10;;;;;;;8.96;66.03;95003.03;5110054;28;20250;-50
2023/01/15 05:26:09;;;;;;;12.30;10.00;;;;;;;9.00;66.15;95006.16;5110276;28;20189;-47
2023/01/15 05:28:36;;;;;;;15.40;10.30;;;;;;;8.94;65.93;94994.69;5109536;28;20665;-47
2023/01/15 05:31:07;;;;;;;13.47;10.07;;;;;;;8.95;65.97;95010.81;5110464;28;20196;-50
2023/01/15 05:33:35;;;;;;;15.33;10.23;;;;;;;8.92;66.06;95006.72;5110173;28;20276;-49
2023/01/15 05:36:02;;;;;;;15.87;10.53;;;;;;;8.92;66.26;95009.28;5109722;28;20185;-47
2023/01/15 05:38:29;;;;;;;14.97;10.13;;;;;;;8.91;66.04;95011.97;5110020;28;20597;-50
2023/01/15 05:40:57;;;;;;;15.10;10.90;;;;;;;8.90;66.22;95010.34;5109312;28;20277;-50
2023/01/15 05:43:24;;;;;;;13.90;10.33;;;;;;;8.83;66.28;95004.09;5109756;28;20655;-48
2023/01/15 05:45:51;;;;;;;15.00;10.83;;;;;;;8.88;66.41;95012.19;5109451;28;20290;-50
2023/01/15 05:48:18;;;;;;;13.70;11.07;;;;;;;8.82;66.45;95008.38;5109531;28;20587;-49
2023/01/15 05:50:44;;;;;;;16.67;10.37;;;;;;;8.87;66.34;95018.22;5109680;28;20565;-48
2023/01/15 05:53:11;;;;;;;16.30;10.63;;;;;;;8.83;66.43;95015.09;5109543;28;20197;-50
2023/01/15 05:55:38;;;;;;;13.70;10.10;;;;;;;8.87;66.31;95023.34;5109392;28;20276;-50
2023/01/15 05:58:06;;;;;;;16.83;11.10;;;;;;;8.87;66.37;95021.59;5109299;28;20181;-48
2023/01/15 06:00:33;;;;;;;14.97;10.27;;;;;;;8.87;66.75;95021.59;5109495;28;20242;-47
2023/01/15 06:03:00;;;;;;;16.70;11.00;;;;;;;8.88;66.22;95024.94;5109033;28;20196;-49
2023/01/15 06:05:26;;;;;;;19.00;11.47;;;;;;;8.88;66.28;95023.19;5109006;28;20196;-50
2023/01/15 06:07:53;;;;;;;14.90;10.17;;;;;;;8.89;66.27;95026.56;5109250;28;20188;-48
2023/01/15 06:10:20;;;;;;;18.03;11.33;;;;;;;8.90;66.35;95029.00;5109641;28;20566;-48
2023/01/15 06:12:47;;;;;;;14.33;10.23;;;;;;;8.91;66.38;95024.72;5109371;28;20197;-50
2023/01/15 06:15:15;;;;;;;20.17;11.67;;;;;;;8.93;66.40;95027.94;5109545;28;20188;-48
2023/01/15 06:17:42;;;;;;;14.33;9.97;;;;;;;8.93;66.35;95021.09;5108819;28;20197;-50
2023/01/15 06:20:10;;;;;;;14.73;10.33;;;;;;;8.95;66.26;95021.81;5109293;28;20696;-51
2023/01/15 06:22:38;;;;;;;15.27;10.57;;;;;;;8.94;66.35;95011.75;5109090;28;20206;-48
2023/01/15 06:25:05;;;;;;;16.17;11.07;;;;;;;8.97;66.34;95022.50;5109316;28;20189;-49
2023/01/15 06:27:32;;;;;;;16.60;11.17;;;;;;;9.00;66.16;95019.72;5108981;28;20635;-50
2023/01/15 06:29:59;;;;;;;17.13;11.30;;;;;;;9.02;66.18;95017.88;5109500;28;20226;-51
2023/01/15 06:32:27;;;;;;;14.70;11.30;;;;;;;9.05;65.95;95012.50;5108962;28;20193;-49
2023/01/15 06:34:54;;;;;;;16.13;10.70;;;;;;;9.08;66.05;95016.56;5109359;28;20193;-49
2023/01/15 06:37:21;;;;;;;15.27;10.90;;;;;;;9.12;65.90;95014.59;5109053;28;20193;-47
2023/01/15 06:39:47;;;;;;;15.53;10.13;;;;;;;9.14;65.92;95017.81;5108949;28;20178;-49
2023/01/15 06:47:44;;;;;;;18.33;11.60;;;;;;;9.26;65.66;95016.84;5108688;28;20289;-50
2023/01/15 06:50:12;;;;;;;18.43;11.13;;;;;;;9.33;65.61;95019.75;5109245;28;20220;-50
2023/01/15 06:52:39;;;;;;;16.90;11.83;;;;;;;9.33;65.62;95012.09;5108977;28;20638;-48
2023/01/15 06:55:06;;;;;;;15.80;11.00;;;;;;;9.43;65.33;95018.88;5108896;28;20192;-49
2023/01/15 06:57:33;;;;;;;15.97;11.47;;;;;;;9.51;65.38;95023.38;5108759;28;20195;-48
2023/01/15 07:00:00;;;;;;;15.43;10.93;;;;;;;9.55;65.16;95012.78;5108760;28;20215;-49
2023/01/15 07:02:27;;;;;;;17.07;11.27;;;;;;;9.64;65.07;95007.88;5108841;28;20233;-49
2023/01/15 07:04:55;;;;;;;15.47;11.10;;;;;;;9.71;65.09;95012.34;5107562;28;20185;-49
2023/01/15 07:07:22;;;;;;;14.87;10.13;;;;;;;9.80;64.68;95013.31;5108754;28;20197;-49
2023/01/15 07:09:49;;;;;;;16.23;11.57;;;;;;;9.88;64.52;95018.63;5108619;28;20181;-49
2023/01/15 07:12:16;;;;;;;17.50;11.70;;;;;;;9.99;64.31;95022.88;5108641;28;20723;-50
2023/01/15 07:14:43;;;;;;;17.63;11.17;;;;;;;10.08;64.07;95013.63;5108694;28;20186;-49
2023/01/15 07:17:10;;;;;;;16.80;11.93;;;;;;;10.16;64.09;95018.94;5112204;28;20189;-48
2023/01/15 07:19:37;;;;;;;15.90;10.83;;;;;;;10.26;63.89;95018.06;5111972;28;20662;-49
2023/01/15 07:22:06;;;;;;;15.00;11.40;;;;;;;10.34;63.87;95014.88;5112255;27;20266;-48
2023/01/15 07:24:33;;;;;;;14.57;11.50;;;;;;;10.24;63.66;94985.88;5112185;28;20189;-48
2023/01/15 07:26:59;;;;;;;16.90;11.17;;;;;;;10.55;63.51;95022.50;5112063;28;20707;-49
2023/01/15 07:29:26;;;;;;;15.70;11.27;;;;;;;10.68;63.12;95027.38;5112366;28;20257;-48
2023/01/15 07:31:53;;;;;;;17.60;12.00;;;;;;;10.65;63.15;95010.53;5112194;28;20199;-49
2023/01/15 07:34:20;;;;;;;18.17;11.13;;;;;;;10.84;62.98;95027.69;5111614;28;20606;-47
2023/01/15 07:36:47;;;;;;;17.83;11.53;;;;;;;10.95;62.93;95030.13;5112043;28;20292;-49
2023/01/15 07:39:16;;;;;;;16.20;11.87;;;;;;;11.03;62.65;95037.16;5111661;28;20208;-49
2023/01/15 07:50:03;;;;;;;18.90;13.50;;;;;;;11.08;62.20;95000.94;5111786;28;20192;-48
2023/01/15 07:52:30;;;;;;;19.40;12.83;;;;;;;11.34;61.92;95014.81;5111334;28;20201;-49
2023/01/15 07:54:58;;;;;;;18.73;12.97;;;;;;;11.74;61.72;95021.53;5111663;28;20523;-49
2023/01/15 07:57:25;;;;;;;20.10;13.00;;;;;;;12.07;61.14;95014.38;5112007;28;20193;-50
2023/01/15 07:59:51;;;;;;;18.77;12.60;;;;;;;12.43;61.03;95020.47;5111635;28;20310;-50
2023/01/15 08:02:19;;;;;;;20.03;14.20;;;;;;;12.54;60.67;95007.47;5111180;28;20225;-48
2023/01/15 08:04:46;;;;;;;19.97;13.30;;;;;;;12.77;60.56;95016.41;5111242;28;20193;-49
2023/01/15 08:07:14;;;;;;;23.30;13.50;;;;;;;13.01;60.07;95017.63;5111595;28;20189;-48
2023/01/15 08:09:42;;;;;;;19.67;12.67;;;;;;;13.42;58.96;95011.16;5110956;28;20185;-48
2023/01/15 08:15:13;;;;;;;19.80;12.97;;;;;;;15.14;55.25;95025.81;5068067;28;20186;-49
2023/01/15 08:17:41;;;;;;;18.77;13.17;;;;;;;15.18;55.04;95021.16;5068068;28;20194;-49
2023/01/15 08:20:11;;;;;;;15.60;11.17;;;;;;;15.06;55.33;95030.97;5067671;28;20186;-48
2023/01/15 08:22:39;;;;;;;17.17;12.23;;;;;;;14.91;55.60;95030.75;5067559;28;20659;-49
2023/01/15 08:25:07;;;;;;;16.30;10.77;;;;;;;14.80;55.81;95031.84;5067532;28;20178;-48
2023/01/15 08:27:36;;;;;;;16.13;12.07;;;;;;;14.74;55.89;95031.66;5067643;28;20232;-48
2023/01/15 08:30:04;;;;;;;18.60;12.10;;;;;;;14.67;55.68;95036.59;5067630;28;20789;-49
2023/01/15 08:32:30;;;;;;;15.03;11.73;;;;;;;14.63;56.02;95043.03;5067684;28;20210;-49
2023/01/15 08:34:57;;;;;;;15.40;10.77;;;;;;;14.65;55.92;95040.31;5067411;28;20205;-49
2023/01/15 08:37:24;;;;;;;12.93;10.07;;;;;;;14.79;55.38;95035.38;5067633;28;20233;-49
2023/01/15 08:39:51;;;;;;;13.30;10.40;;;;;;;14.79;55.32;95039.72;5066967;28;20194;-50
2023/01/15 08:42:18;;;;;;;14.73;10.73;;;;;;;14.74;55.44;95035.03;5067498;28;20210;-51
2023/01/15 08:44:47;;;;;;;15.47;10.93;;;;;;;14.69;55.66;95033.91;5067273;28;20190;-50
2023/01/15 08:47:14;;;;;;;13.70;10.33;;;;;;;14.65;55.66;95032.59;5109145;28;20263;-49
2023/01/15 08:49:41;;;;;;;12.80;9.67;;;;;;;14.63;55.67;95029.34;5110129;28;20196;-47
2023/01/15 08:52:08;;;;;;;14.97;11.00;;;;;;;14.62;55.43;95023.41;5111114;28;20189;-50
2023/01/15 08:54:34;;;;;;;14.37;10.20;;;;;;;14.65;55.44;95027.44;5119921;28;20207;-48
2023/01/15 08:57:02;;;;;;;11.93;9.37;;;;;;;14.64;55.54;95031.78;5119894;28;20185;-49
2023/01/15 08:59:28;;;;;;;12.93;10.27;;;;;;;14.65;55.33;95027.44;5118409;28;20181;-49
2023/01/15 09:01:57;;;;;;;13.20;9.90;;;;;;;14.64;55.48;95033.56;5113145;28;20661;-49
2023/01/15 09:04:23;;;;;;;10.87;8.90;;;;;;;14.60;55.28;95027.09;5109754;28;20253;-48
2023/01/15 09:06:50;;;;;;;13.63;9.20;;;;;;;14.60;55.34;95032.25;5110154;28;20647;-49
2023/01/15 09:09:17;;;;;;;11.37;9.47;;;;;;;14.62;55.31;95027.75;5110334;28;20185;-48
2023/01/15 09:11:45;;;;;;;11.97;9.63;;;;;;;14.59;55.15;95021.13;5110261;28;20218;-48
2023/01/15 09:14:14;;;;;;;11.50;9.23;;;;;;;14.67;55.06;95028.88;5109846;28;20189;-50
2023/01/15 09:16:41;;;;;;;14.27;10.23;;;;;;;14.67;54.99;95015.22;5110082;28;20219;-48
2023/01/15 09:19:10;;;;;;;12.17;9.97;;;;;;;14.65;54.95;95004.28;5109713;28;20654;-49
2023/01/15 09:21:37;;;;;;;10.87;9.27;;;;;;;14.70;54.82;95017.47;5109940;28;20209;-48
2023/01/15 09:24:04;;;;;;;9.97;8.53;;;;;;;14.65;54.93;95010.22;5109771;28;20185;-49
2023/01/15 09:26:32;;;;;;;14.07;9.57;;;;;;;14.72;54.71;95011.22;5109882;28;20216;-48
2023/01/15 09:29:00;;;;;;;12.37;9.63;;;;;;;14.80;54.60;95010.44;5109810;28;20527;-49
2023/01/15 09:31:28;;;;;;;10.90;8.83;;;;;;;14.78;54.64;94991.78;5109518;28;20196;-49
2023/01/15 09:33:55;;;;;;;12.23;9.73;;;;;;;14.89;54.40;95003.53;5109596;28;20204;-49
2023/01/15 09:36:27;;;;;;;12.70;8.87;;;;;;;14.88;54.60;95000.16;5109434;28;20605;-48
2023/01/15 09:38:54;;;;;;;9.40;8.40;;;;;;;14.86;54.77;94989.22;5109522;28;20208;-48
2023/01/15 09:44:26;;;;;;;9.73;8.07;;;;;;;14.87;54.77;94982.31;5109799;28;20184;-50
2023/01/15 09:47:05;;;;;;;12.17;9.20;;;;;;;14.72;54.77;94962.31;5109276;28;20728;-50
2023/01/15 09:49:54;;;;;;;14.17;9.87;;;;;;;14.85;54.63;94981.63;5109396;28;20197;-48
2023/01/15 09:52:32;;;;;;;10.93;8.70;;;;;;;14.81;54.66;94983.75;5109918;28;20182;-49
2023/01/15 09:55:05;;;;;;;11.53;8.77;;;;;;;14.78;54.93;94966.84;5109412;28;20653;-48
2023/01/15 09:57:33;;;;;;;10.87;8.77;;;;;;;14.77;54.92;94961.84;5109489;28;20224;-47
2023/01/15 10:00:04;;;;;;;13.33;9.60;;;;;;;14.77;54.70;94964.41;5109273;28;20189;-48
2023/01/15 10:02:37;;;;;;;11.43;9.00;;;;;;;14.74;55.01;94955.22;5109245;28;20748;-50
2023/01/15 10:05:12;;;;;;;12.50;9.30;;;;;;;14.77;54.83;94948.97;5109176;28;20658;-49
2023/01/15 10:07:46;;;;;;;10.07;8.90;;;;;;;14.75;54.72;94941.38;5109630;28;20185;-48
2023/01/15 10:10:18;;;;;;;10.90;8.40;;;;;;;14.77;54.77;94933.53;5108885;28;20188;-48
2023/01/15 10:12:49;;;;;;;10.20;8.57;;;;;;;14.79;54.56;94934.16;5109688;28;20188;-48
2023/01/15 10:15:32;;;;;;;12.47;9.03;;;;;;;14.74;54.70;94932.06;5109916;28;20746;-47
2023/01/15 10:18:00;;;;;;;11.40;8.80;;;;;;;14.73;54.65;94925.31;5109853;28;20198;-49
2023/01/15 10:20:43;;;;;;;11.03;8.90;;;;;;;14.72;54.72;94926.28;5109420;28;20185;-50
2023/01/15 10:23:25;;;;;;;9.83;8.80;;;;;;;14.72;54.72;94921.13;5110155;28;20216;-51
2023/01/15 10:25:58;;;;;;;13.00;9.17;;;;;;;14.72;54.69;94913.41;5111751;28;20197;-49
2023/01/15 10:28:29;;;;;;;12.40;9.50;;;;;;;14.73;54.57;94906.47;5110299;28;20193;-48
2023/01/15 10:31:02;;;;;;;14.30;10.17;;;;;;;14.77;54.62;94905.22;5109287;28;20192;-49
2023/01/15 10:33:51;;;;;;;15.13;10.47;;;;;;;14.80;54.44;94905.66;5109170;28;20192;-48
2023/01/15 10:36:24;;;;;;;13.07;9.80;;;;;;;14.81;54.44;94898.78;5109135;28;20192;-48
2023/01/15 10:39:01;;;;;;;12.97;9.60;;;;;;;14.88;54.51;94892.00;5109409;28;20185;-48
2023/01/15 10:41:43;;;;;;;12.23;9.73;;;;;;;14.94;54.43;94886.25;5109090;28;20184;-49
2023/01/15 10:44:15;;;;;;;14.30;10.03;;;;;;;14.91;54.34;94871.09;5109344;28;20654;-48
2023/01/15 10:46:49;;;;;;;14.53;10.43;;;;;;;14.84;54.34;94844.38;5109035;28;20193;-49
2023/01/15 10:49:18;;;;;;;12.10;10.03;;;;;;;14.82;54.20;94838.59;5109012;28;20267;-48
2023/01/15 10:51:48;;;;;;;11.80;9.67;;;;;;;15.05;54.32;94872.22;5112072;28;20237;-49
2023/01/15 10:54:22;;;;;;;15.00;9.73;;;;;;;14.93;54.39;94848.56;5113329;28;20565;-48
2023/01/15 10:57:00;;;;;;;12.77;9.27;;;;;;;15.06;54.30;94864.34;5112909;28;20193;-48
2023/01/15 10:59:38;;;;;;;11.87;9.87;;;;;;;15.12;54.04;94862.91;5112914;28;20180;-49
2023/01/15 11:02:21;;;;;;;11.97;10.13;;;;;;;15.08;54.20;94853.88;5112487;28;20221;-49
2023/01/15 11:04:48;;;;;;;13.97;9.67;;;;;;;14.92;54.17;94833.28;5112695;28;20565;-48
2023/01/15 11:07:17;;;;;;;11.43;8.80;;;;;;;14.94;54.12;94844.22;5112494;28;20186;-49
2023/01/15 11:09:46;;;;;;;13.30;9.77;;;;;;;14.92;54.01;94839.22;5112971;28;20623;-48
2023/01/15 11:20:49;;;;;;;13.60;10.23;;;;;;;14.96;53.62;94829.41;5112422;28;20192;-49
2023/01/15 11:23:18;;;;;;;13.93;9.90;;;;;;;14.94;53.69;94821.84;5112076;28;20225;-48
2023/01/15 11:25:51;;;;;;;11.60;9.03;;;;;;;14.93;53.48;94822.00;5112327;28;20276;-49
2023/01/15 11:28:18;;;;;;;9.70;8.67;;;;;;;14.90;53.65;94823.16;5112126;28;20662;-50
2023/01/15 11:30:54;;;;;;;12.50;10.20;;;;;;;14.87;53.40;94813.16;5112429;28;20608;-49
2023/01/15 11:33:23;;;;;;;12.13;9.47;;;;;;;14.85;53.41;94815.06;5112028;28;20293;-48
2023/01/15 11:35:51;;;;;;;11.97;9.57;;;;;;;14.84;53.36;94815.25;5112305;28;20554;-48
2023/01/15 11:38:21;;;;;;;9.87;8.30;;;;;;;14.70;53.54;94784.03;5112103;28;20225;-48
2023/01/15 11:40:53;;;;;;;13.07;9.47;;;;;;;14.79;53.40;94805.44;5112414;28;20197;-54
2023/01/15 11:51:56;;;;;;;16.43;9.10;;;;;;;14.65;53.48;94788.84;5112113;28;20192;-50
2023/01/15 11:54:25;;;;;;;12.93;9.60;;;;;;;14.61;53.59;94779.03;5112176;28;20631;-47
2023/01/15 11:56:55;;;;;;;11.10;8.67;;;;;;;14.42;53.48;94755.22;5112020;28;20188;-51
2023/01/15 11:59:23;;;;;;;11.57;9.00;;;;;;;14.54;53.64;94781.44;5111651;28;20284;-47
2023/01/15 12:01:58;;;;;;;12.07;9.27;;;;;;;14.50;53.44;94782.72;5111896;28;20243;-50
2023/01/15 12:04:34;;;;;;;17.63;9.47;;;;;;;14.49;53.47;94784.50;5111934;28;20200;-49
2023/01/15 12:07:02;;;;;;;11.87;9.33;;;;;;;14.45;53.59;94779.78;5111966;28;20188;-49
2023/01/15 12:09:47;;;;;;;13.40;9.40;;;;;;;14.41;53.55;94779.31;5111972;28;20189;-49
2023/01/15 12:12:24;;;;;;;11.83;9.20;;;;;;;14.37;53.81;94772.06;5111578;28;20219;-49
2023/01/15 12:15:16;;;;;;;12.60;8.57;;;;;;;14.34;53.75;94772.41;5112059;28;20189;-48
2023/01/15 12:18:24;;;;;;;11.43;9.00;;;;;;;14.29;53.70;94758.25;5048860;28;20206;-50
2023/01/15 12:21:02;;;;;;;11.27;8.33;;;;;;;14.20;53.62;94756.59;4931330;29;20238;-48